Time;durP1;ratioP1;P1;durP2;ratioP2;P2;SDS_P1;SDS_P2;PMS_P1;PMS_P2;Temp;Humidity;BMP_temperature;BMP_pressure;BME280_temperature;BME280_humidity;BME280_pressure;Samples;Min_cycle;Max_cycle;Signal;HPM_P1;HPM_P2
2024/04/28 00:00:47;;;;;;;;;;;;;;;;;;5471370;26;19998;-67
2024/04/28 00:03:13;;;;;;;;;;;;;;;;;;5468197;26;20359;-67
2024/04/28 00:05:38;;;;;;;;;;;;;;;;;;5470669;25;19951;-68
2024/04/28 00:08:03;;;;;;;;;;;;;;;;;;5469918;25;19928;-67
2024/04/28 00:10:28;;;;;;;;;;;;;;;;;;5463676;25;19962;-67
2024/04/28 00:12:53;;;;;;;;;;;;;;;;;;5479542;25;19956;-67
2024/04/28 00:15:18;;;;;;;;;;;;;;;;;;5477943;25;19940;-67
2024/04/28 00:17:43;;;;;;;;;;;;;;;;;;5466867;26;20001;-67
2024/04/28 00:20:09;;;;;;;;;;;;;;;;;;5485828;25;20371;-67
2024/04/28 00:22:34;;;;;;;;;;;;;;;;;;5473917;26;19936;-67
2024/04/28 00:24:59;;;;;;;;;;;;;;;;;;5477600;26;19936;-67
2024/04/28 00:27:25;;;;;;;;;;;;;;;;;;5472655;26;20258;-67
2024/04/28 00:29:50;;;;;;;;;;;;;;;;;;5458287;26;19959;-66
2024/04/28 00:32:15;;;;;;;;;;;;;;;;;;5476565;26;19928;-67
2024/04/28 00:34:41;;;;;;;;;;;;;;;;;;5478129;26;19960;-67
2024/04/28 00:37:06;;;;;;;;;;;;;;;;;;5480925;26;19927;-67
2024/04/28 00:39:31;;;;;;;;;;;;;;;;;;5477222;26;19942;-66
2024/04/28 00:41:57;;;;;;;;;;;;;;;;;;5476575;26;19928;-66
2024/04/28 00:44:22;;;;;;;;;;;;;;;;;;5478482;25;19935;-67
2024/04/28 00:46:47;;;;;;;;;;;;;;;;;;5477084;26;20381;-67
2024/04/28 00:49:14;;;;;;;;;;;;;;;;;;5478851;25;19928;-67
2024/04/28 00:51:39;;;;;;;;;;;;;;;;;;5477038;26;20028;-67
2024/04/28 00:54:04;;;;;;;;;;;;;;;;;;5465978;26;19936;-67
2024/04/28 00:56:29;;;;;;;;;;;;;;;;;;5477941;25;20363;-67
2024/04/28 00:58:54;;;;;;;;;;;;;;;;;;5479227;25;19957;-66
2024/04/28 01:01:19;;;;;;;;;;;;;;;;;;5478996;25;19928;-67
2024/04/28 01:03:45;;;;;;;;;;;;;;;;;;5479166;25;19956;-67
2024/04/28 01:06:10;;;;;;;;;;;;;;;;;;5436021;25;19940;-68
2024/04/28 01:08:35;;;;;;;;;;;;;;;;;;5442509;26;19932;-67
2024/04/28 01:11:00;;;;;;;;;;;;;;;;;;5456695;26;20309;-67
2024/04/28 01:13:25;;;;;;;;;;;;;;;;;;5478429;25;19939;-67
2024/04/28 01:15:50;;;;;;;;;;;;;;;;;;5468791;25;19940;-66
2024/04/28 01:18:15;;;;;;;;;;;;;;;;;;5482101;25;20256;-66
2024/04/28 01:20:40;;;;;;;;;;;;;;;;;;5482790;25;20420;-67
2024/04/28 01:23:05;;;;;;;;;;;;;;;;;;5485337;25;20353;-66
2024/04/28 01:25:30;;;;;;;;;;;;;;;;;;5481811;25;19928;-66
2024/04/28 01:27:55;;;;;;;;;;;;;;;;;;5482187;25;19932;-67
2024/04/28 01:30:21;;;;;;;;;;;;;;;;;;5481888;25;19928;-66
2024/04/28 01:32:46;;;;;;;;;;;;;;;;;;5466678;25;19992;-67
2024/04/28 01:35:11;;;;;;;;;;;;;;;;;;5483719;25;20389;-66
2024/04/28 01:37:36;;;;;;;;;;;;;;;;;;5487074;25;19927;-67
2024/04/28 01:40:02;;;;;;;;;;;;;;;;;;5478846;25;19928;-67
2024/04/28 01:42:28;;;;;;;;;;;;;;;;;;5470244;25;19939;-66
2024/04/28 01:44:53;;;;;;;;;;;;;;;;;;5482472;25;20026;-66
2024/04/28 01:47:18;;;;;;;;;;;;;;;;;;5473566;25;19935;-66
2024/04/28 01:49:43;;;;;;;;;;;;;;;;;;5482245;25;19940;-66
2024/04/28 01:52:08;;;;;;;;;;;;;;;;;;5473030;25;19943;-67
2024/04/28 01:54:33;;;;;;;;;;;;;;;;;;5473691;25;19940;-66
2024/04/28 01:56:58;;;;;;;;;;;;;;;;;;5479716;26;20333;-67
2024/04/28 01:59:24;;;;;;;;;;;;;;;;;;5482417;25;19928;-66
2024/04/28 02:01:49;;;;;;;;;;;;;;;;;;5481418;25;19938;-66
2024/04/28 02:04:14;;;;;;;;;;;;;;;;;;5467755;25;19928;-67
2024/04/28 02:06:39;;;;;;;;;;;;;;;;;;5481254;25;19947;-67
2024/04/28 02:09:04;;;;;;;;;;;;;;;;;;5477609;25;19935;-66
2024/04/28 02:11:29;;;;;;;;;;;;;;;;;;5480496;25;19936;-67
2024/04/28 02:13:54;;;;;;;;;;;;;;;;;;5481034;25;20497;-66
2024/04/28 02:16:19;;;;;;;;;;;;;;;;;;5480739;25;19931;-67
2024/04/28 02:18:44;;;;;;;;;;;;;;;;;;5482035;25;19989;-67
2024/04/28 02:21:09;;;;;;;;;;;;;;;;;;5481939;25;19997;-66
2024/04/28 02:23:34;;;;;;;;;;;;;;;;;;5482707;25;19935;-67
2024/04/28 02:26:00;;;;;;;;;;;;;;;;;;5481038;25;19928;-67
2024/04/28 02:28:25;;;;;;;;;;;;;;;;;;5473930;25;19997;-67
2024/04/28 02:30:50;;;;;;;;;;;;;;;;;;5456632;26;19942;-67
2024/04/28 02:33:15;;;;;;;;;;;;;;;;;;5473563;25;19935;-66
2024/04/28 02:35:40;;;;;;;;;;;;;;;;;;5487042;25;20003;-67
2024/04/28 02:38:05;;;;;;;;;;;;;;;;;;5481155;25;19928;-67
2024/04/28 02:40:30;;;;;;;;;;;;;;;;;;5480601;25;20322;-66
2024/04/28 02:42:55;;;;;;;;;;;;;;;;;;5473286;25;20454;-66
2024/04/28 02:50:48;;;;;;;;;;;;;;;;;;5481259;25;19946;-67
2024/04/28 02:53:13;;;;;;;;;;;;;;;;;;5480586;25;19936;-66
2024/04/28 02:55:38;;;;;;;;;;;;;;;;;;5480400;25;20369;-66
2024/04/28 02:58:03;;;;;;;;;;;;;;;;;;5465390;26;20009;-66
2024/04/28 03:00:29;;;;;;;;;;;;;;;;;;5479923;25;19940;-66
2024/04/28 03:02:54;;;;;;;;;;;;;;;;;;5472281;26;19940;-66
2024/04/28 03:05:19;;;;;;;;;;;;;;;;;;5460170;25;19928;-67
2024/04/28 03:07:44;;;;;;;;;;;;;;;;;;5463637;25;19935;-67
2024/04/28 03:10:10;;;;;;;;;;;;;;;;;;5477538;25;19931;-67
2024/04/28 03:12:35;;;;;;;;;;;;;;;;;;5473130;26;19928;-67
2024/04/28 03:15:00;;;;;;;;;;;;;;;;;;5474464;26;20238;-67
2024/04/28 03:17:25;;;;;;;;;;;;;;;;;;5478120;25;19928;-67
2024/04/28 03:19:50;;;;;;;;;;;;;;;;;;5481780;25;19932;-66
2024/04/28 03:22:15;;;;;;;;;;;;;;;;;;5480265;25;19936;-66
2024/04/28 03:24:40;;;;;;;;;;;;;;;;;;5480504;25;20646;-66
2024/04/28 03:27:05;;;;;;;;;;;;;;;;;;5477914;25;19936;-67
2024/04/28 03:29:30;;;;;;;;;;;;;;;;;;5453455;26;19951;-67
2024/04/28 03:31:55;;;;;;;;;;;;;;;;;;5480286;25;19935;-67
2024/04/28 03:34:20;;;;;;;;;;;;;;;;;;5465115;25;19932;-67
2024/04/28 03:36:46;;;;;;;;;;;;;;;;;;5467503;25;20375;-67
2024/04/28 03:39:11;;;;;;;;;;;;;;;;;;5443637;26;19928;-66
2024/04/28 03:41:36;;;;;;;;;;;;;;;;;;5466850;26;19940;-66
2024/04/28 03:44:01;;;;;;;;;;;;;;;;;;5480145;25;19936;-69
2024/04/28 03:46:26;;;;;;;;;;;;;;;;;;5478719;25;19972;-67
2024/04/28 03:48:51;;;;;;;;;;;;;;;;;;5481153;25;20000;-66
2024/04/28 03:51:16;;;;;;;;;;;;;;;;;;5479941;25;19932;-66
2024/04/28 03:53:41;;;;;;;;;;;;;;;;;;5480158;25;20400;-66
2024/04/28 03:56:06;;;;;;;;;;;;;;;;;;5467787;25;19972;-66
2024/04/28 03:58:31;;;;;;;;;;;;;;;;;;5480414;25;19935;-66
2024/04/28 04:00:56;;;;;;;;;;;;;;;;;;5480342;25;20265;-66
2024/04/28 04:03:22;;;;;;;;;;;;;;;;;;5479485;25;20449;-66
2024/04/28 04:05:47;;;;;;;;;;;;;;;;;;5463491;25;19940;-67
2024/04/28 04:08:12;;;;;;;;;;;;;;;;;;5478777;25;19935;-67
2024/04/28 04:10:37;;;;;;;;;;;;;;;;;;5479610;25;19956;-66
2024/04/28 04:13:02;;;;;;;;;;;;;;;;;;5478656;25;19931;-66
2024/04/28 04:15:27;;;;;;;;;;;;;;;;;;5479278;25;19934;-67
2024/04/28 04:17:52;;;;;;;;;;;;;;;;;;5479135;25;20383;-67
2024/04/28 04:20:17;;;;;;;;;;;;;;;;;;5478405;25;19935;-67
2024/04/28 04:22:42;;;;;;;;;;;;;;;;;;5478303;25;19928;-67
2024/04/28 04:25:07;;;;;;;;;;;;;;;;;;5479163;25;19976;-67
2024/04/28 04:27:32;;;;;;;;;;;;;;;;;;5466787;26;20380;-66
2024/04/28 04:29:58;;;;;;;;;;;;;;;;;;5464973;26;19938;-66
2024/04/28 04:32:23;;;;;;;;;;;;;;;;;;5477121;25;19935;-66
2024/04/28 04:34:48;;;;;;;;;;;;;;;;;;5479876;25;19931;-66
2024/04/28 04:37:13;;;;;;;;;;;;;;;;;;5480925;25;19935;-66
2024/04/28 04:39:38;;;;;;;;;;;;;;;;;;5477036;25;20318;-66
2024/04/28 04:42:03;;;;;;;;;;;;;;;;;;5476413;26;19935;-66
2024/04/28 04:44:28;;;;;;;;;;;;;;;;;;5479368;25;19928;-67
2024/04/28 04:46:53;;;;;;;;;;;;;;;;;;5479119;25;19928;-66
2024/04/28 04:49:18;;;;;;;;;;;;;;;;;;5469082;25;19928;-66
2024/04/28 04:51:43;;;;;;;;;;;;;;;;;;5461834;26;20286;-67
2024/04/28 04:54:08;;;;;;;;;;;;;;;;;;5478626;25;20268;-67
2024/04/28 04:56:33;;;;;;;;;;;;;;;;;;5477557;26;19928;-67
2024/04/28 04:58:59;;;;;;;;;;;;;;;;;;5479556;25;19940;-67
2024/04/28 05:01:24;;;;;;;;;;;;;;;;;;5478042;25;19993;-67
2024/04/28 05:03:49;;;;;;;;;;;;;;;;;;5479299;25;20388;-67
2024/04/28 05:06:14;;;;;;;;;;;;;;;;;;5477586;25;19940;-66
2024/04/28 05:08:39;;;;;;;;;;;;;;;;;;5478396;25;20380;-67
2024/04/28 05:11:04;;;;;;;;;;;;;;;;;;5477961;25;19939;-67
2024/04/28 05:13:29;;;;;;;;;;;;;;;;;;5468973;26;20000;-67
2024/04/28 05:15:54;;;;;;;;;;;;;;;;;;5482006;25;20361;-66
2024/04/28 05:18:19;;;;;;;;;;;;;;;;;;5443490;25;19928;-67
2024/04/28 05:20:44;;;;;;;;;;;;;;;;;;5459276;25;19944;-67
2024/04/28 05:23:10;;;;;;;;;;;;;;;;;;5453477;26;19966;-67
2024/04/28 05:25:35;;;;;;;;;;;;;;;;;;5442208;26;19928;-67
2024/04/28 05:28:00;;;;;;;;;;;;;;;;;;5440934;26;19981;-66
2024/04/28 05:30:25;;;;;;;;;;;;;;;;;;5447417;26;20452;-67
2024/04/28 05:32:50;;;;;;;;;;;;;;;;;;5476880;25;20489;-67
2024/04/28 05:35:15;;;;;;;;;;;;;;;;;;5464469;26;20192;-67
2024/04/28 05:37:40;;;;;;;;;;;;;;;;;;5478561;25;20220;-66
2024/04/28 05:40:05;;;;;;;;;;;;;;;;;;5479121;25;20217;-67
2024/04/28 05:42:30;;;;;;;;;;;;;;;;;;5468714;25;20325;-67
2024/04/28 05:44:55;;;;;;;;;;;;;;;;;;5441850;26;19928;-67
2024/04/28 05:47:20;;;;;;;;;;;;;;;;;;5460718;26;19975;-67
2024/04/28 05:49:46;;;;;;;;;;;;;;;;;;5479094;26;19936;-67
2024/04/28 05:52:11;;;;;;;;;;;;;;;;;;5475038;25;20269;-66
2024/04/28 05:54:36;;;;;;;;;;;;;;;;;;5478701;25;19939;-66
2024/04/28 05:57:01;;;;;;;;;;;;;;;;;;5478625;26;19956;-67
2024/04/28 05:59:26;;;;;;;;;;;;;;;;;;5478698;25;19935;-67
2024/04/28 06:01:51;;;;;;;;;;;;;;;;;;5476851;25;20313;-66
2024/04/28 06:04:16;;;;;;;;;;;;;;;;;;5478981;25;19936;-67
2024/04/28 06:06:41;;;;;;;;;;;;;;;;;;5468754;26;19928;-68
2024/04/28 06:09:07;;;;;;;;;;;;;;;;;;5482954;25;19934;-67
2024/04/28 06:11:32;;;;;;;;;;;;;;;;;;5466600;26;19931;-67
2024/04/28 06:13:57;;;;;;;;;;;;;;;;;;5479519;25;20001;-67
2024/04/28 06:16:22;;;;;;;;;;;;;;;;;;5480378;25;19996;-67
2024/04/28 06:18:47;;;;;;;;;;;;;;;;;;5481156;25;20349;-67
2024/04/28 06:21:12;;;;;;;;;;;;;;;;;;5488551;25;19928;-67
2024/04/28 06:23:37;;;;;;;;;;;;;;;;;;5465142;25;19935;-67
2024/04/28 06:26:02;;;;;;;;;;;;;;;;;;5481434;25;19936;-67
2024/04/28 06:28:28;;;;;;;;;;;;;;;;;;5480873;25;20195;-67
2024/04/28 06:30:53;;;;;;;;;;;;;;;;;;5481498;25;20346;-67
2024/04/28 06:33:18;;;;;;;;;;;;;;;;;;5480075;25;20094;-67
2024/04/28 06:35:43;;;;;;;;;;;;;;;;;;5470203;25;19939;-67
2024/04/28 06:38:10;;;;;;;;;;;;;;;;;;5480945;25;19928;-67
2024/04/28 06:40:35;;;;;;;;;;;;;;;;;;5475830;26;19928;-67
2024/04/28 06:43:00;;;;;;;;;;;;;;;;;;5450515;26;19932;-67
2024/04/28 06:45:25;;;;;;;;;;;;;;;;;;5462176;26;20364;-67
2024/04/28 06:47:50;;;;;;;;;;;;;;;;;;5480405;26;19960;-67
2024/04/28 06:50:15;;;;;;;;;;;;;;;;;;5477621;25;19928;-67
2024/04/28 06:52:40;;;;;;;;;;;;;;;;;;5477753;26;19928;-67
2024/04/28 06:55:05;;;;;;;;;;;;;;;;;;5481245;25;19932;-67
2024/04/28 06:57:31;;;;;;;;;;;;;;;;;;5480687;25;20404;-67
2024/04/28 06:59:56;;;;;;;;;;;;;;;;;;5481590;25;19977;-67
2024/04/28 07:02:21;;;;;;;;;;;;;;;;;;5474835;25;19928;-67
2024/04/28 07:04:46;;;;;;;;;;;;;;;;;;5481007;25;19928;-67
2024/04/28 07:07:11;;;;;;;;;;;;;;;;;;5487131;26;20146;-67
2024/04/28 07:09:36;;;;;;;;;;;;;;;;;;5480821;25;19940;-67
2024/04/28 07:12:01;;;;;;;;;;;;;;;;;;5479048;25;19928;-68
2024/04/28 07:14:26;;;;;;;;;;;;;;;;;;5479959;25;19935;-67
2024/04/28 07:16:51;;;;;;;;;;;;;;;;;;5480461;25;19996;-67
2024/04/28 07:19:16;;;;;;;;;;;;;;;;;;5482256;25;19928;-67
2024/04/28 07:21:42;;;;;;;;;;;;;;;;;;5485546;25;20310;-67
2024/04/28 07:24:07;;;;;;;;;;;;;;;;;;5480888;25;19969;-67
2024/04/28 07:26:32;;;;;;;;;;;;;;;;;;5479531;25;19960;-67
2024/04/28 07:28:57;;;;;;;;;;;;;;;;;;5480793;25;20261;-67
2024/04/28 07:31:22;;;;;;;;;;;;;;;;;;5479296;25;20266;-67
2024/04/28 07:33:47;;;;;;;;;;;;;;;;;;5480059;25;19928;-68
2024/04/28 07:36:12;;;;;;;;;;;;;;;;;;5483724;25;19938;-68
2024/04/28 07:38:37;;;;;;;;;;;;;;;;;;5480238;25;19957;-67
2024/04/28 07:41:02;;;;;;;;;;;;;;;;;;5481323;25;19928;-67
2024/04/28 07:43:27;;;;;;;;;;;;;;;;;;5479045;25;20369;-67
2024/04/28 07:45:52;;;;;;;;;;;;;;;;;;5480317;25;20000;-67
2024/04/28 07:48:18;;;;;;;;;;;;;;;;;;5446308;25;20385;-67
2024/04/28 07:50:43;;;;;;;;;;;;;;;;;;5443841;26;19937;-67
2024/04/28 07:53:08;;;;;;;;;;;;;;;;;;5443364;26;19986;-67
2024/04/28 07:55:33;;;;;;;;;;;;;;;;;;5445164;26;20337;-67
2024/04/28 07:57:58;;;;;;;;;;;;;;;;;;5473349;26;20189;-67
2024/04/28 08:00:24;;;;;;;;;;;;;;;;;;5479777;25;19944;-68
2024/04/28 08:02:49;;;;;;;;;;;;;;;;;;5476337;25;20329;-67
2024/04/28 08:05:14;;;;;;;;;;;;;;;;;;5479109;25;19935;-67
2024/04/28 08:07:39;;;;;;;;;;;;;;;;;;5478430;25;19928;-67
2024/04/28 08:10:04;;;;;;;;;;;;;;;;;;5480040;25;20842;-67
2024/04/28 08:12:29;;;;;;;;;;;;;;;;;;5478400;25;19998;-67
2024/04/28 08:14:54;;;;;;;;;;;;;;;;;;5480590;25;19928;-68
2024/04/28 08:17:20;;;;;;;;;;;;;;;;;;5479977;25;19932;-67
2024/04/28 08:19:45;;;;;;;;;;;;;;;;;;5480009;25;19928;-67
2024/04/28 08:22:10;;;;;;;;;;;;;;;;;;5464990;25;19943;-68
2024/04/28 08:24:35;;;;;;;;;;;;;;;;;;5471780;26;19940;-68
2024/04/28 08:27:00;;;;;;;;;;;;;;;;;;5477297;26;20319;-68
2024/04/28 08:29:25;;;;;;;;;;;;;;;;;;5477643;26;19960;-67
2024/04/28 08:31:50;;;;;;;;;;;;;;;;;;5478737;25;19935;-67
2024/04/28 08:34:15;;;;;;;;;;;;;;;;;;5435046;25;19929;-68
2024/04/28 08:36:40;;;;;;;;;;;;;;;;;;5447229;26;19929;-67
2024/04/28 08:39:05;;;;;;;;;;;;;;;;;;5479898;26;20574;-67
2024/04/28 08:41:31;;;;;;;;;;;;;;;;;;5476312;25;19941;-67
2024/04/28 08:43:56;;;;;;;;;;;;;;;;;;5474860;25;20055;-67
2024/04/28 08:46:21;;;;;;;;;;;;;;;;;;5470766;26;19929;-67
2024/04/28 08:48:46;;;;;;;;;;;;;;;;;;5473902;26;19995;-67
2024/04/28 08:51:11;;;;;;;;;;;;;;;;;;5479493;25;19980;-68
2024/04/28 08:53:37;;;;;;;;;;;;;;;;;;5477419;25;20349;-68
2024/04/28 08:56:02;;;;;;;;;;;;;;;;;;5462825;25;20361;-68
2024/04/28 08:58:27;;;;;;;;;;;;;;;;;;5469614;26;20415;-68
2024/04/28 09:00:52;;;;;;;;;;;;;;;;;;5473540;25;19928;-68
2024/04/28 09:03:17;;;;;;;;;;;;;;;;;;5467484;25;19939;-68
2024/04/28 09:05:42;;;;;;;;;;;;;;;;;;5470007;25;19996;-67
2024/04/28 09:08:07;;;;;;;;;;;;;;;;;;5468369;25;19939;-68
2024/04/28 09:10:32;;;;;;;;;;;;;;;;;;5466129;26;20170;-67
2024/04/28 09:12:57;;;;;;;;;;;;;;;;;;5475726;25;20343;-68
2024/04/28 09:15:23;;;;;;;;;;;;;;;;;;5467359;26;19927;-67
2024/04/28 09:17:48;;;;;;;;;;;;;;;;;;5477764;25;19935;-68
2024/04/28 09:20:13;;;;;;;;;;;;;;;;;;5477609;25;19992;-67
2024/04/28 09:22:38;;;;;;;;;;;;;;;;;;5471695;25;19983;-67
2024/04/28 09:25:03;;;;;;;;;;;;;;;;;;5450596;26;19940;-68
2024/04/28 09:27:28;;;;;;;;;;;;;;;;;;5471617;26;19935;-68
2024/04/28 09:29:53;;;;;;;;;;;;;;;;;;5472391;25;19939;-67
2024/04/28 09:32:18;;;;;;;;;;;;;;;;;;5471377;25;19936;-68
2024/04/28 09:34:44;;;;;;;;;;;;;;;;;;5479682;25;19938;-68
2024/04/28 09:37:09;;;;;;;;;;;;;;;;;;5469775;26;20439;-67
2024/04/28 09:39:34;;;;;;;;;;;;;;;;;;5467299;26;19932;-67
2024/04/28 09:41:59;;;;;;;;;;;;;;;;;;5491455;25;19928;-67
2024/04/28 09:44:24;;;;;;;;;;;;;;;;;;5490014;25;20273;-67
2024/04/28 09:46:49;;;;;;;;;;;;;;;;;;5486679;26;19935;-67
2024/04/28 09:49:15;;;;;;;;;;;;;;;;;;5475474;25;19928;-67
2024/04/28 09:51:40;;;;;;;;;;;;;;;;;;5515373;25;19939;-67
2024/04/28 09:54:05;;;;;;;;;;;;;;;;;;5484288;26;19935;-68
2024/04/28 09:56:31;;;;;;;;;;;;;;;;;;5479414;25;19935;-68
2024/04/28 09:58:56;;;;;;;;;;;;;;;;;;5499318;25;19928;-67
2024/04/28 10:01:21;;;;;;;;;;;;;;;;;;5474286;25;20427;-68
2024/04/28 10:03:46;;;;;;;;;;;;;;;;;;5478618;26;19935;-67
2024/04/28 10:06:11;;;;;;;;;;;;;;;;;;5475520;25;19993;-67
2024/04/28 10:08:36;;;;;;;;;;;;;;;;;;5494426;25;19943;-68
2024/04/28 10:11:01;;;;;;;;;;;;;;;;;;5492749;26;19935;-67
2024/04/28 10:13:26;;;;;;;;;;;;;;;;;;5497970;25;19991;-68
2024/04/28 10:15:51;;;;;;;;;;;;;;;;;;5476363;26;19928;-67
2024/04/28 10:18:16;;;;;;;;;;;;;;;;;;5469854;26;20356;-67
2024/04/28 10:20:44;;;;;;;;;;;;;;;;;;5475056;26;21283;-67
2024/04/28 10:23:09;;;;;;;;;;;;;;;;;;5468663;26;21489;-67
2024/04/28 10:25:34;;;;;;;;;;;;;;;;;;5471506;26;19939;-67
2024/04/28 10:27:59;;;;;;;;;;;;;;;;;;5510776;25;19928;-67
2024/04/28 10:30:24;;;;;;;;;;;;;;;;;;5487815;25;20957;-67
2024/04/28 10:32:50;;;;;;;;;;;;;;;;;;5479098;26;20009;-68
2024/04/28 10:35:15;;;;;;;;;;;;;;;;;;5491049;25;19927;-68
2024/04/28 10:37:40;;;;;;;;;;;;;;;;;;5475414;26;19934;-68
2024/04/28 10:40:05;;;;;;;;;;;;;;;;;;5486286;25;19947;-68
2024/04/28 10:42:30;;;;;;;;;;;;;;;;;;5457612;26;20407;-68
2024/04/28 10:44:55;;;;;;;;;;;;;;;;;;5457330;26;19980;-68
2024/04/28 10:47:21;;;;;;;;;;;;;;;;;;5458977;26;19940;-68
2024/04/28 10:49:46;;;;;;;;;;;;;;;;;;5477589;26;19996;-68
2024/04/28 10:52:11;;;;;;;;;;;;;;;24.27;nan;99955.63;5481551;25;19928;-68
2024/04/28 10:54:36;;;;;;;;;;;;;;;;;;5483156;25;19928;-68
2024/04/28 10:57:02;;;;;;;;;;;;;;;24.83;nan;99976.09;5465103;26;19935;-68
2024/04/28 10:59:27;;;;;;;;;;;;;;;24.77;nan;99973.34;5457742;26;20368;-68
2024/04/28 11:01:52;;;;;;;;;;;;;;;24.85;nan;99973.94;5480246;25;20373;-66
2024/04/28 11:04:20;;;;;;;;;;;;;;;25.75;nan;99982.03;5480094;25;19928;-69
2024/04/28 11:06:45;;;;;;;;;;;;;;;26.80;nan;99991.72;5485601;25;19940;-68
2024/04/28 11:09:10;;;;;;;;;;;;;;;;;;5482208;25;20443;-68
2024/04/28 11:11:35;;;;;;;;;;;;;;;27.38;nan;99986.72;5473177;26;19981;-68
2024/04/28 11:14:01;;;;;;;;;;;;;;;27.48;nan;99986.72;5486768;25;20045;-68
2024/04/28 11:16:27;;;;;;;;;;;;;;;28.37;nan;100003.09;5486069;25;19996;-68
2024/04/28 11:18:52;;;;;;;;;;;;;;;29.04;nan;100007.19;5490931;25;19939;-66
2024/04/28 11:21:18;;;;;;;;;;;;;;;29.38;nan;100010.66;5508331;25;19992;-68
2024/04/28 11:23:43;;;;;;;;;;;;;;;30.04;nan;100005.50;5479225;25;19935;-68
2024/04/28 11:26:10;;;;;;;;;;;;;;;30.36;nan;100021.13;5444413;26;19928;-67
2024/04/28 11:28:36;;;;;;;;;;;;;;;29.96;nan;100008.88;5450748;26;20264;-67
2024/04/28 11:31:02;;;;;;;;;;;;;;;30.13;nan;100009.19;5477990;25;19928;-66
2024/04/28 11:33:30;;;;;;;;;;;;;;;30.43;nan;100018.03;5480177;25;20454;-67
2024/04/28 11:35:56;;;;;;;;;;;;;;;29.97;nan;100010.50;5470236;26;19942;-67
2024/04/28 11:38:21;;;;;;;;;;;;;;;29.18;nan;100021.78;5466085;26;19928;-66
2024/04/28 11:40:47;;;;;;;;;;;;;;;28.38;nan;100048.22;5446845;26;19940;-67
2024/04/28 11:43:15;;;;;;;;;;;;;;;27.29;nan;100039.97;5451126;26;19935;-66
2024/04/28 11:45:40;;;;;;;;;;;;;;;26.47;nan;100029.09;5447641;26;19934;-66
2024/04/28 11:48:06;;;;;;;;;;;;;;;25.92;nan;100047.66;5486919;25;19927;-67
2024/04/28 11:50:31;;;;;;;;;;;;;;;25.45;nan;100032.25;5457955;26;20517;-66
2024/04/28 11:52:56;;;;;;;;;;;;;;;24.77;nan;100035.53;5459435;26;19937;-67
2024/04/28 11:55:21;;;;;;;;;;;;;;;;;;5433128;26;19944;-67
2024/04/28 11:57:47;;;;;;;;;;;;;;;;;;5433511;26;19929;-67
2024/04/28 12:00:12;;;;;;;;;;;;;;;;;;5435276;26;20263;-68
2024/04/28 12:02:37;;;;;;;;;;;;;;;;;;5439309;26;20239;-66
2024/04/28 12:05:02;;;;;;;;;;;;;;;;;;5427470;26;20275;-66
2024/04/28 12:07:27;;;;;;;;;;;;;;;;;;5438731;26;19935;-66
2024/04/28 12:09:52;;;;;;;;;;;;;;;23.93;nan;100028.75;5427248;26;19964;-66
2024/04/28 12:12:17;;;;;;;;;;;;;;;24.26;nan;100026.91;5428918;26;19936;-66
2024/04/28 12:14:42;;;;;;;;;;;;;;;24.33;nan;100029.41;5425568;26;19933;-66
2024/04/28 12:17:08;;;;;;;;;;;;;;;24.08;nan;100019.19;5488643;25;19929;-67
2024/04/28 12:19:33;;;;;;;;;;;;;;;23.92;nan;100026.28;5482397;25;19977;-67
2024/04/28 12:21:58;;;;;;;;;;;;;;;;;;5481037;25;19940;-66
2024/04/28 12:24:23;;;;;;;;;;;;;;;;;;5481400;25;19934;-67
2024/04/28 12:26:48;;;;;;;;;;;;;;;;;;5485885;25;20367;-67
2024/04/28 12:29:13;;;;;;;;;;;;;;;;;;5481281;25;19928;-66
2024/04/28 12:31:38;;;;;;;;;;;;;;;23.29;nan;100029.22;5451417;26;19941;-65
2024/04/28 12:34:03;;;;;;;;;;;;;;;;;;5448662;26;19935;-67
2024/04/28 12:36:29;;;;;;;;;;;;;;;;;;5482466;26;19928;-67
2024/04/28 12:38:54;;;;;;;;;;;;;;;;;;5475312;25;19935;-66
2024/04/28 12:41:19;;;;;;;;;;;;;;;23.34;nan;100027.69;5477617;25;19928;-66
2024/04/28 12:43:44;;;;;;;;;;;;;;;;;;5478118;25;19935;-67
2024/04/28 12:46:09;;;;;;;;;;;;;;;;;;5465612;25;19944;-66
2024/04/28 12:48:34;;;;;;;;;;;;;;;;;;5473541;25;20000;-66
2024/04/28 12:50:59;;;;;;;;;;;;;;;23.40;nan;100035.56;5472096;25;20366;-66
2024/04/28 12:53:24;;;;;;;;;;;;;;;;;;5476288;25;19932;-67
2024/04/28 12:55:51;;;;;;;;;;;;;;;;;;5476694;25;19935;-66
2024/04/28 12:58:16;;;;;;;;;;;;;;;;;;5465369;25;19939;-65
2024/04/28 13:00:41;;;;;;;;;;;;;;;;;;5475936;25;20000;-66
2024/04/28 13:03:06;;;;;;;;;;;;;;;;;;5476091;25;20450;-66
2024/04/28 13:05:31;;;;;;;;;;;;;;;;;;5474662;25;19934;-66
2024/04/28 13:07:57;;;;;;;;;;;;;;;;;;5464746;26;19983;-67
2024/04/28 13:10:22;;;;;;;;;;;;;;;;;;5478592;25;20345;-66
2024/04/28 13:12:47;;;;;;;;;;;;;;;;;;5477150;25;20296;-65
2024/04/28 13:15:12;;;;;;;;;;;;;;;;;;5464316;25;19928;-65
2024/04/28 13:17:37;;;;;;;;;;;;;;;;;;5477158;25;19964;-66
2024/04/28 13:20:02;;;;;;;;;;;;;;;;;;5474654;25;20318;-66
2024/04/28 13:22:27;;;;;;;;;;;;;;;;;;5440360;26;20013;-65
2024/04/28 13:24:52;;;;;;;;;;;;;;;;;;5472444;25;20001;-66
2024/04/28 13:27:17;;;;;;;;;;;;;;;;;;5477733;26;20348;-66
2024/04/28 13:29:42;;;;;;;;;;;;;;;;;;5479457;26;19940;-65
2024/04/28 13:32:08;;;;;;;;;;;;;;;;;;5476671;25;20375;-66
2024/04/28 13:34:33;;;;;;;;;;;;;;;;;;5478847;25;19936;-67
2024/04/28 13:36:58;;;;;;;;;;;;;;;;;;5480515;26;19940;-67
2024/04/28 13:39:23;;;;;;;;;;;;;;;;;;5490848;26;19943;-66
2024/04/28 13:41:48;;;;;;;;;;;;;;;;;;5474555;25;20723;-66
2024/04/28 13:44:14;;;;;;;;;;;;;;;;;;5467741;25;19994;-66
2024/04/28 13:46:39;;;;;;;;;;;;;;;;;;5473947;26;19935;-66
2024/04/28 13:49:04;;;;;;;;;;;;;;;;;;5474204;26;19940;-66
2024/04/28 13:51:29;;;;;;;;;;;;;;;;;;5479009;25;20281;-66
2024/04/28 13:53:54;;;;;;;;;;;;;;;;;;5473122;25;20757;-67
2024/04/28 13:56:19;;;;;;;;;;;;;;;;;;5473625;25;20230;-66
2024/04/28 13:58:44;;;;;;;;;;;;;;;;;;5467286;26;20656;-66
2024/04/28 14:01:10;;;;;;;;;;;;;;;;;;5473806;25;19991;-66
2024/04/28 14:03:35;;;;;;;;;;;;;;;;;;5460882;25;19928;-65
2024/04/28 14:06:00;;;;;;;;;;;;;;;;;;5476533;25;19934;-66
2024/04/28 14:08:25;;;;;;;;;;;;;;;;;;5475981;25;19932;-66
2024/04/28 14:10:50;;;;;;;;;;;;;;;;;;5470776;25;19940;-68
2024/04/28 14:13:15;;;;;;;;;;;;;;;;;;5470169;25;19932;-66
2024/04/28 14:15:40;;;;;;;;;;;;;;;;;;5469769;26;19936;-67
2024/04/28 14:18:05;;;;;;;;;;;;;;;;;;5465786;26;19928;-66
2024/04/28 14:20:31;;;;;;;;;;;;;;;;;;5441504;26;19929;-66
2024/04/28 14:22:56;;;;;;;;;;;;;;;;;;5440277;26;19956;-66
2024/04/28 14:25:21;;;;;;;;;;;;;;;;;;5454618;26;20541;-66
2024/04/28 14:27:46;;;;;;;;;;;;;;;;;;5466730;25;19928;-67
2024/04/28 14:30:11;;;;;;;;;;;;;;;;;;5472706;25;19934;-66
2024/04/28 14:32:36;;;;;;;;;;;;;;;;;;5479241;25;19967;-66
2024/04/28 14:35:01;;;;;;;;;;;;;;;;;;5473614;26;19976;-66
2024/04/28 14:37:27;;;;;;;;;;;;;;;;;;5488101;25;20264;-66
2024/04/28 14:39:54;;;;;;;;;;;;;;;;;;5457953;25;20381;-67
2024/04/28 14:42:20;;;;;;;;;;;;;;;;;;5443362;25;20266;-66
2024/04/28 14:44:45;;;;;;;;;;;;;;;;;;5443030;26;20744;-65
2024/04/28 14:47:10;;;;;;;;;;;;;;;;;;5442690;26;19997;-66
2024/04/28 14:49:35;;;;;;;;;;;;;;;;;;5436198;26;19997;-66
2024/04/28 14:52:00;;;;;;;;;;;;;;;;;;5439649;26;19928;-66
2024/04/28 14:54:25;;;;;;;;;;;;;;;;;;5462884;26;19940;-65
2024/04/28 14:56:50;;;;;;;;;;;;;;;;;;5465623;25;19941;-66
2024/04/28 14:59:15;;;;;;;;;;;;;;;;;;5445990;25;20261;-66
2024/04/28 15:01:40;;;;;;;;;;;;;;;;;;5452705;25;20564;-66
2024/04/28 15:04:07;;;;;;;;;;;;;;;;;;5458328;25;19928;-66
2024/04/28 15:06:32;;;;;;;;;;;;;;;;;;5463596;26;20354;-66
2024/04/28 15:08:57;;;;;;;;;;;;;;;;;;5458988;25;19992;-65
2024/04/28 15:11:22;;;;;;;;;;;;;;;;;;5469613;25;19939;-65
2024/04/28 15:13:47;;;;;;;;;;;;;;;;;;5463559;25;20337;-65
2024/04/28 15:16:12;;;;;;;;;;;;;;;;;;5471241;26;19928;-65
2024/04/28 15:18:38;;;;;;;;;;;;;;;;;;5468583;26;19935;-65
2024/04/28 15:21:03;;;;;;;;;;;;;;;;;;5434454;26;20488;-65
2024/04/28 15:23:28;;;;;;;;;;;;;;;;;;5436015;26;19998;-66
2024/04/28 15:25:53;;;;;;;;;;;;;;;;;;5440468;26;20518;-66
2024/04/28 15:28:18;;;;;;;;;;;;;;;;;;5425033;26;20277;-65
2024/04/28 15:30:43;;;;;;;;;;;;;;;;;;5440217;26;19939;-66
2024/04/28 15:33:08;;;;;;;;;;;;;;;;;;5442516;26;20353;-66
2024/04/28 15:35:33;;;;;;;;;;;;;;;;;;5429141;26;19955;-67
2024/04/28 15:37:59;;;;;;;;;;;;;;;;;;5431945;26;19929;-66
2024/04/28 15:40:24;;;;;;;;;;;;;;;;;;5434151;26;19935;-66
2024/04/28 15:42:49;;;;;;;;;;;;;;;;;;5432932;26;22645;-66
2024/04/28 15:45:14;;;;;;;;;;;;;;;;;;5422453;26;19988;-66
2024/04/28 15:47:39;;;;;;;;;;;;;;;;;;5435033;26;19945;-65
2024/04/28 15:50:04;;;;;;;;;;;;;;;;;;5426192;26;20416;-66
2024/04/28 15:52:29;;;;;;;;;;;;;;;;;;5431835;26;19939;-66
2024/04/28 15:54:55;;;;;;;;;;;;;;;;;;5433352;26;19928;-68
2024/04/28 15:57:20;;;;;;;;;;;;;;;;;;5441139;26;19929;-67
2024/04/28 15:59:45;;;;;;;;;;;;;;;;;;5438434;26;19939;-69
2024/04/28 16:02:10;;;;;;;;;;;;;;;;;;5440659;26;19928;-66
2024/04/28 16:04:35;;;;;;;;;;;;;;;;;;5440035;26;19932;-66
2024/04/28 16:07:00;;;;;;;;;;;;;;;;;;5428100;26;20957;-65
2024/04/28 16:09:26;;;;;;;;;;;;;;;;;;5441473;26;19932;-66
2024/04/28 16:11:51;;;;;;;;;;;;;;;;;;5436914;26;19973;-65